Time;durP1;ratioP1;P1;durP2;ratioP2;P2;SDS_P1;SDS_P2;PMS_P1;PMS_P2;Temp;Humidity;BMP_temperature;BMP_pressure;BME280_temperature;BME280_humidity;BME280_pressure;Samples;Min_cycle;Max_cycle;Signal;HPM_P1;HPM_P2
2022/08/01 00:00:21;;;;;;;17.17;15.68;;;;;;;22.33;52.61;100296.41;5028313;28;20045;-76
2022/08/01 00:02:47;;;;;;;16.63;15.52;;;;;;;22.27;52.64;100297.66;5024837;28;20029;-76
2022/08/01 00:05:12;;;;;;;17.40;16.42;;;;;;;22.26;52.41;100298.59;5030562;28;20033;-76
2022/08/01 00:07:38;;;;;;;18.67;17.48;;;;;;;22.16;52.88;100297.34;5011411;28;20109;-75
2022/08/01 00:10:08;;;;;;;17.73;16.73;;;;;;;22.10;53.21;100295.88;5026835;28;20049;-76
2022/08/01 00:12:34;;;;;;;17.20;16.17;;;;;;;22.03;52.86;100296.31;5024653;28;20029;-76
2022/08/01 00:15:00;;;;;;;18.35;17.20;;;;;;;21.99;53.50;100292.09;5027261;28;20044;-76
2022/08/01 00:17:25;;;;;;;17.77;16.67;;;;;;;21.89;54.39;100292.63;5026162;28;20033;-76
2022/08/01 00:19:50;;;;;;;19.55;18.30;;;;;;;21.82;53.99;100296.63;5027373;28;20024;-75
2022/08/01 00:22:16;;;;;;;18.23;17.13;;;;;;;21.80;54.23;100294.97;5024258;28;20040;-76
2022/08/01 00:24:41;;;;;;;19.58;18.48;;;;;;;21.74;54.32;100290.78;5024965;28;20096;-76
2022/08/01 00:27:06;;;;;;;17.30;16.30;;;;;;;21.70;54.46;100291.94;5020934;28;20570;-76
2022/08/01 00:29:32;;;;;;;19.17;17.98;;;;;;;21.67;55.02;100292.13;5010484;28;20029;-76
2022/08/01 00:31:57;;;;;;;18.02;16.45;;;;;;;21.57;56.12;100290.88;5008164;28;20056;-76
2022/08/01 00:34:22;;;;;;;18.38;17.27;;;;;;;21.51;56.42;100292.09;5031848;28;20037;-76
2022/08/01 00:36:48;;;;;;;19.30;17.98;;;;;;;21.50;55.76;100287.66;5022737;28;20056;-75
2022/08/01 00:39:13;;;;;;;17.77;16.65;;;;;;;21.43;56.56;100291.63;5024940;28;20116;-76
2022/08/01 00:41:38;;;;;;;18.63;17.52;;;;;;;21.42;56.54;100281.84;5007570;28;20068;-76
2022/08/01 00:44:05;;;;;;;18.35;17.25;;;;;;;21.37;56.95;100283.88;5030955;28;20041;-75
2022/08/01 00:46:31;;;;;;;18.58;17.27;;;;;;;21.36;57.39;100283.03;5004421;28;20049;-76
2022/08/01 00:48:57;;;;;;;17.58;16.58;;;;;;;21.40;56.81;100284.59;5008301;28;20034;-76
2022/08/01 00:51:22;;;;;;;19.67;18.55;;;;;;;21.45;57.00;100281.69;5024612;28;20025;-75
2022/08/01 00:53:48;;;;;;;18.02;17.02;;;;;;;21.42;56.53;100281.84;5024438;28;20462;-76
2022/08/01 00:56:14;;;;;;;18.35;17.25;;;;;;;21.42;56.53;100279.16;5025394;28;20040;-76
2022/08/01 00:58:39;;;;;;;17.50;16.40;;;;;;;21.46;56.67;100283.44;5025526;28;20029;-76
2022/08/01 01:01:04;;;;;;;19.23;18.20;;;;;;;21.48;57.07;100277.97;5023998;28;20100;-76
2022/08/01 01:03:29;;;;;;;17.50;16.50;;;;;;;21.45;56.51;100282.53;5007295;28;20045;-76
2022/08/01 01:06:07;;;;;;;17.33;16.13;;;;;;;21.40;57.30;100276.56;5008559;28;20046;-76
2022/08/01 01:08:42;;;;;;;17.20;16.15;;;;;;;21.36;57.34;100277.66;5023716;28;20033;-75
2022/08/01 01:11:35;;;;;;;17.73;16.10;;;;;;;21.33;57.94;100280.53;5008471;28;20072;-76
2022/08/01 01:14:09;;;;;;;15.05;14.23;;;;;;;21.39;56.86;100277.53;5025879;28;20049;-75
2022/08/01 01:16:40;;;;;;;16.88;15.88;;;;;;;21.45;57.11;100279.84;5005322;28;20034;-76
2022/08/01 01:19:10;;;;;;;18.27;16.93;;;;;;;21.55;57.15;100282.03;5024057;28;20029;-76
2022/08/01 01:21:56;;;;;;;17.27;16.17;;;;;;;21.62;57.33;100278.06;5022746;28;20072;-76
2022/08/01 01:24:37;;;;;;;18.40;17.20;;;;;;;21.67;56.84;100276.00;5028933;28;20543;-76
2022/08/01 01:27:24;;;;;;;19.10;18.00;;;;;;;21.75;56.23;100265.69;5001040;28;20045;-76
2022/08/01 01:29:53;;;;;;;18.48;17.48;;;;;;;21.84;56.51;100273.19;5025530;28;20066;-75
2022/08/01 01:32:33;;;;;;;18.95;17.75;;;;;;;21.86;56.55;100274.00;5005535;28;20606;-75
2022/08/01 01:35:00;;;;;;;17.90;16.88;;;;;;;21.81;56.93;100273.38;5026046;28;20034;-75
2022/08/01 01:37:28;;;;;;;18.55;17.27;;;;;;;21.82;56.85;100280.50;5024569;28;20510;-76
2022/08/01 01:39:55;;;;;;;18.50;17.48;;;;;;;21.84;57.16;100275.88;5024300;28;20044;-76
2022/08/01 01:42:21;;;;;;;18.45;16.90;;;;;;;21.88;56.55;100274.78;5027057;28;20037;-76
2022/08/01 01:44:49;;;;;;;19.83;18.63;;;;;;;21.91;56.96;100276.41;5024178;28;20037;-76
2022/08/01 01:47:16;;;;;;;18.08;16.98;;;;;;;21.89;57.33;100272.94;5025145;28;20117;-76
2022/08/01 01:49:45;;;;;;;18.35;17.25;;;;;;;21.89;56.77;100281.88;5026331;28;20042;-76
2022/08/01 01:52:13;;;;;;;16.80;15.80;;;;;;;21.92;57.36;100278.13;5004560;28;20026;-75
2022/08/01 01:54:42;;;;;;;17.92;16.83;;;;;;;21.88;57.50;100269.41;5025183;28;20040;-76
2022/08/01 01:57:09;;;;;;;16.55;15.43;;;;;;;21.91;56.91;100268.34;5023201;28;20487;-76
2022/08/01 01:59:38;;;;;;;18.02;16.92;;;;;;;21.99;56.83;100274.16;5024479;28;20095;-76
2022/08/01 02:02:05;;;;;;;17.17;16.08;;;;;;;21.94;57.03;100276.25;5021977;28;20396;-76
2022/08/01 02:04:32;;;;;;;16.15;15.05;;;;;;;21.94;56.72;100278.06;5027601;28;20013;-76
2022/08/01 02:06:58;;;;;;;17.67;16.55;;;;;;;21.88;57.34;100282.84;5025479;28;20034;-76
2022/08/01 02:09:27;;;;;;;18.95;17.65;;;;;;;21.93;57.25;100287.94;5026525;28;20488;-76
2022/08/01 02:11:53;;;;;;;15.60;14.70;;;;;;;21.96;56.63;100286.91;5021344;28;20045;-76
2022/08/01 02:14:20;;;;;;;18.02;17.02;;;;;;;21.95;56.39;100291.38;5009372;28;20475;-76
2022/08/01 02:16:49;;;;;;;17.10;16.15;;;;;;;21.97;56.94;100291.31;5024132;28;20038;-76
2022/08/01 02:19:17;;;;;;;15.88;14.82;;;;;;;21.94;56.76;100286.13;5027231;28;20037;-76
2022/08/01 02:21:55;;;;;;;16.10;15.20;;;;;;;21.90;57.33;100293.47;5020377;28;20030;-76
2022/08/01 02:24:40;;;;;;;18.45;17.35;;;;;;;21.94;56.36;100289.66;5025459;28;20037;-76
2022/08/01 02:27:09;;;;;;;18.20;17.02;;;;;;;21.91;57.53;100283.63;5022185;28;20049;-76
2022/08/01 02:29:58;;;;;;;16.42;15.43;;;;;;;21.82;57.31;100290.34;5010693;28;20124;-76
2022/08/01 02:32:34;;;;;;;17.90;16.90;;;;;;;21.76;57.53;100290.72;5027954;28;20034;-76
2022/08/01 02:35:03;;;;;;;15.30;14.40;;;;;;;21.75;57.62;100289.84;5024729;28;20038;-76
2022/08/01 02:37:33;;;;;;;16.13;15.13;;;;;;;21.66;57.53;100285.84;5003763;28;20034;-76
2022/08/01 02:39:59;;;;;;;15.57;14.68;;;;;;;21.60;58.47;100285.34;5036997;28;20172;-78
2022/08/01 02:42:27;;;;;;;16.05;15.05;;;;;;;21.52;58.32;100283.09;5026209;28;20029;-79
2022/08/01 02:44:53;;;;;;;16.45;15.30;;;;;;;21.45;58.39;100284.38;5026174;28;20034;-76
2022/08/01 02:47:22;;;;;;;14.50;13.38;;;;;;;21.35;59.49;100281.31;5029756;28;20044;-76
2022/08/01 02:49:50;;;;;;;14.00;13.10;;;;;;;21.31;59.59;100284.22;5031691;28;20046;-75
2022/08/01 02:52:17;;;;;;;14.50;13.60;;;;;;;21.27;60.03;100283.53;5014960;28;20112;-76
2022/08/01 02:54:48;;;;;;;15.02;14.02;;;;;;;21.27;60.31;100285.34;5026444;28;20033;-76
2022/08/01 02:57:15;;;;;;;15.35;14.25;;;;;;;21.21;60.25;100286.53;5027786;28;20025;-76
2022/08/01 02:59:42;;;;;;;12.57;11.60;;;;;;;21.22;60.66;100291.84;5028599;28;20037;-76
2022/08/01 03:02:09;;;;;;;12.25;11.48;;;;;;;21.20;60.80;100284.81;5026200;28;20067;-76
2022/08/01 03:04:37;;;;;;;12.95;11.88;;;;;;;21.24;60.64;100286.38;5028722;28;20084;-76
2022/08/01 03:07:06;;;;;;;12.77;11.90;;;;;;;21.26;59.96;100278.25;5025865;28;20038;-76
2022/08/01 03:09:35;;;;;;;11.95;10.95;;;;;;;21.27;60.26;100288.03;5028968;28;20110;-76
2022/08/01 03:12:04;;;;;;;13.27;12.15;;;;;;;21.25;60.36;100285.44;5027075;28;20042;-76
2022/08/01 03:14:32;;;;;;;12.52;11.48;;;;;;;21.19;60.80;100285.75;5012477;28;20037;-76
2022/08/01 03:17:00;;;;;;;11.45;10.63;;;;;;;21.25;60.50;100290.81;5024974;28;20056;-76
2022/08/01 03:19:27;;;;;;;12.55;11.60;;;;;;;21.26;60.34;100291.66;5027641;28;20030;-76
2022/08/01 03:21:55;;;;;;;13.18;11.98;;;;;;;21.32;60.52;100294.88;5006960;28;20068;-76
2022/08/01 03:24:22;;;;;;;13.38;12.27;;;;;;;21.36;59.95;100293.75;5022185;28;20025;-76
2022/08/01 03:26:48;;;;;;;14.05;12.95;;;;;;;21.40;60.18;100300.72;5027026;28;20061;-76
2022/08/01 03:29:21;;;;;;;13.02;12.02;;;;;;;21.39;60.44;100299.00;5014778;28;20144;-76
2022/08/01 03:31:48;;;;;;;12.63;11.43;;;;;;;21.31;60.91;100289.59;5005752;28;20388;-76
2022/08/01 03:34:14;;;;;;;12.48;11.50;;;;;;;21.26;60.27;100300.59;5012094;28;20036;-76
2022/08/01 03:37:14;;;;;;;11.98;11.18;;;;;;;21.24;60.88;100292.59;5010296;28;20036;-76
2022/08/01 03:39:46;;;;;;;11.73;10.82;;;;;;;21.07;61.31;100291.81;5026504;28;20091;-76
2022/08/01 03:42:18;;;;;;;13.57;12.48;;;;;;;20.97;61.57;100291.41;5017189;28;20044;-76
2022/08/01 03:44:47;;;;;;;;;;;;;;;20.90;62.33;100300.72;5026654;28;20026;-76
2022/08/01 03:47:16;;;;;;;11.35;10.48;;;;;;;20.89;61.43;100294.50;5011659;28;20031;-76
2022/08/01 03:49:44;;;;;;;11.82;10.20;;;;;;;20.95;61.38;100296.00;5010343;28;20025;-76
2022/08/01 03:52:11;;;;;;;12.68;11.75;;;;;;;20.97;61.49;100296.78;5033817;28;20067;-76
2022/08/01 03:54:40;;;;;;;12.25;11.27;;;;;;;20.95;61.60;100299.53;5025090;28;20042;-76
2022/08/01 03:57:07;;;;;;;9.98;9.25;;;;;;;20.92;61.66;100299.69;5018840;28;20059;-76
2022/08/01 03:59:36;;;;;;;10.70;9.70;;;;;;;20.95;61.89;100296.84;5027235;28;20129;-76
2022/08/01 04:02:02;;;;;;;11.52;10.52;;;;;;;20.99;61.92;100300.25;5024201;28;20037;-76
2022/08/01 04:04:28;;;;;;;11.75;10.65;;;;;;;21.04;61.21;100298.19;5027458;28;20033;-76
2022/08/01 04:06:54;;;;;;;11.50;10.60;;;;;;;21.16;61.01;100296.66;5030705;28;20033;-76
2022/08/01 04:09:20;;;;;;;11.60;10.70;;;;;;;21.22;61.11;100293.63;5031405;28;20102;-76
2022/08/01 04:11:46;;;;;;;11.07;10.18;;;;;;;21.20;61.27;100298.25;5015576;28;20037;-76
2022/08/01 04:14:12;;;;;;;11.05;10.27;;;;;;;21.19;61.21;100304.53;5032555;28;20036;-76
2022/08/01 04:16:37;;;;;;;11.48;10.68;;;;;;;21.21;61.50;100308.00;5025028;28;20033;-76
2022/08/01 04:19:04;;;;;;;11.50;10.40;;;;;;;21.23;61.18;100312.34;5032206;28;20456;-78
2022/08/01 04:21:32;;;;;;;12.88;11.85;;;;;;;21.29;61.10;100313.84;5024714;28;20040;-76
2022/08/01 04:24:06;;;;;;;11.70;10.77;;;;;;;21.38;61.41;100313.38;5024440;28;20048;-76
2022/08/01 04:26:34;;;;;;;12.20;11.25;;;;;;;21.42;60.51;100312.25;5024253;28;20036;-76
2022/08/01 04:29:02;;;;;;;12.82;11.82;;;;;;;21.42;61.47;100316.75;5027388;28;20121;-77
2022/08/01 04:31:30;;;;;;;11.82;10.82;;;;;;;21.45;61.04;100312.06;5028181;28;20040;-76
2022/08/01 04:33:57;;;;;;;13.90;11.52;;;;;;;21.42;62.03;100320.28;5029320;28;20029;-76
2022/08/01 04:36:24;;;;;;;12.15;10.80;;;;;;;21.49;60.70;100328.91;5003663;28;20030;-76
2022/08/01 04:38:54;;;;;;;11.80;10.88;;;;;;;21.52;60.72;100322.50;5024267;28;20116;-76
2022/08/01 04:41:21;;;;;;;12.13;11.32;;;;;;;21.50;60.94;100324.38;5022890;28;20080;-76
2022/08/01 04:43:47;;;;;;;12.77;11.50;;;;;;;21.49;61.74;100328.03;5024197;28;20025;-76
2022/08/01 04:46:13;;;;;;;12.38;11.23;;;;;;;21.43;61.96;100332.78;5029501;28;20513;-76
2022/08/01 04:48:40;;;;;;;10.75;9.85;;;;;;;21.46;62.06;100334.44;5011098;28;20102;-76
2022/08/01 04:51:13;;;;;;;12.57;11.27;;;;;;;21.50;62.56;100332.44;5033076;28;20124;-76
2022/08/01 04:53:38;;;;;;;11.90;10.95;;;;;;;21.52;61.99;100334.09;5014973;28;20029;-76
2022/08/01 04:56:04;;;;;;;11.98;10.57;;;;;;;21.53;62.66;100337.63;5024176;28;20124;-76
2022/08/01 04:58:29;;;;;;;12.32;11.30;;;;;;;21.51;62.43;100335.06;5026071;28;20502;-76
2022/08/01 05:00:54;;;;;;;11.05;10.35;;;;;;;21.65;62.32;100336.97;5023872;28;20029;-76
2022/08/01 05:03:19;;;;;;;10.88;10.07;;;;;;;21.61;62.33;100338.09;5024864;28;20048;-76
2022/08/01 05:05:45;;;;;;;11.20;10.40;;;;;;;21.63;62.49;100342.41;5024209;28;20042;-76
2022/08/01 05:08:10;;;;;;;11.65;10.65;;;;;;;21.65;63.50;100343.22;5022710;28;20045;-76
2022/08/01 05:10:36;;;;;;;10.50;9.70;;;;;;;21.66;63.73;100350.31;5026475;28;20398;-76
2022/08/01 05:13:01;;;;;;;11.07;10.18;;;;;;;21.70;63.52;100351.03;5023836;28;20039;-76
2022/08/01 05:15:26;;;;;;;10.10;9.40;;;;;;;21.74;63.74;100341.81;5007818;28;20629;-76
2022/08/01 05:17:52;;;;;;;11.10;10.35;;;;;;;21.73;64.50;100344.63;5023397;28;20546;-76
2022/08/01 05:20:17;;;;;;;11.20;10.43;;;;;;;21.76;64.24;100344.44;5013243;28;20661;-76
2022/08/01 05:22:43;;;;;;;12.23;11.32;;;;;;;21.72;65.29;100351.81;5020525;28;20056;-76
2022/08/01 05:25:08;;;;;;;12.65;11.48;;;;;;;21.71;65.93;100349.19;5031164;28;20045;-76
2022/08/01 05:27:40;;;;;;;11.40;10.50;;;;;;;21.78;65.63;100347.91;5011599;28;20083;-76
2022/08/01 05:30:09;;;;;;;11.00;10.20;;;;;;;21.85;65.75;100352.84;5020225;28;20049;-76
2022/08/01 05:32:35;;;;;;;12.93;11.93;;;;;;;21.83;65.80;100361.97;5023500;28;20033;-76
2022/08/01 05:35:00;;;;;;;12.93;12.02;;;;;;;21.84;66.44;100356.47;5026329;28;20045;-76
2022/08/01 05:37:26;;;;;;;13.52;12.32;;;;;;;21.84;66.35;100352.94;5028281;28;20033;-76
2022/08/01 05:39:51;;;;;;;12.98;12.07;;;;;;;21.88;66.79;100362.56;5023788;28;20040;-76
2022/08/01 05:42:16;;;;;;;13.68;12.75;;;;;;;21.83;67.32;100356.59;5034266;28;20112;-76
2022/08/01 05:44:42;;;;;;;13.20;12.40;;;;;;;21.84;68.39;100351.09;5025064;28;20038;-76
2022/08/01 05:47:07;;;;;;;13.35;12.45;;;;;;;21.84;68.63;100356.47;5025485;28;20072;-76
2022/08/01 05:49:32;;;;;;;13.38;12.57;;;;;;;21.88;69.45;100355.38;5029174;28;20037;-76
2022/08/01 05:51:58;;;;;;;14.05;13.05;;;;;;;21.77;69.49;100356.91;5030638;28;20103;-76
2022/08/01 05:54:23;;;;;;;13.55;12.65;;;;;;;21.75;70.29;100361.53;5027230;28;20055;-76
2022/08/01 05:56:49;;;;;;;12.20;11.40;;;;;;;21.73;70.55;100353.53;5026080;28;20049;-75
2022/08/01 05:59:14;;;;;;;13.48;12.57;;;;;;;21.83;70.10;100356.59;5032696;28;20037;-76
2022/08/01 06:01:39;;;;;;;12.68;11.88;;;;;;;21.84;69.91;100353.78;5022421;28;20040;-75
2022/08/01 06:04:05;;;;;;;14.23;13.13;;;;;;;21.93;69.52;100359.59;5026047;28;20038;-76
2022/08/01 06:06:30;;;;;;;14.52;13.25;;;;;;;22.11;68.32;100361.25;5023969;28;20112;-76
2022/08/01 06:08:55;;;;;;;14.48;13.57;;;;;;;22.25;67.67;100363.22;5029544;28;20037;-76
2022/08/01 06:11:20;;;;;;;13.95;12.60;;;;;;;22.27;66.94;100367.53;5025817;28;20037;-76
2022/08/01 06:13:46;;;;;;;15.70;14.70;;;;;;;22.29;66.91;100370.13;5028227;28;20029;-75
2022/08/01 06:16:11;;;;;;;14.93;13.98;;;;;;;22.25;67.18;100368.59;5037934;28;20116;-76
2022/08/01 06:18:37;;;;;;;15.20;14.15;;;;;;;22.34;66.70;100364.50;5024650;28;20041;-76
2022/08/01 06:21:02;;;;;;;14.02;13.02;;;;;;;22.39;66.41;100370.47;5040628;28;20031;-76
2022/08/01 06:23:27;;;;;;;13.13;12.32;;;;;;;22.45;67.19;100367.41;5029817;28;20048;-76
2022/08/01 06:25:57;;;;;;;13.80;12.90;;;;;;;22.61;66.63;100370.97;5032448;28;20037;-76
2022/08/01 06:28:23;;;;;;;14.43;13.20;;;;;;;22.59;66.90;100372.00;5033195;28;20040;-76
2022/08/01 06:30:48;;;;;;;12.60;11.70;;;;;;;22.62;66.82;100377.19;5037229;28;20033;-76
2022/08/01 06:33:13;;;;;;;15.15;14.20;;;;;;;22.68;66.26;100372.31;5034294;28;20053;-76
2022/08/01 06:35:39;;;;;;;13.18;12.18;;;;;;;22.66;66.20;100373.34;5035561;28;20123;-76
2022/08/01 06:38:04;;;;;;;13.02;11.85;;;;;;;22.78;65.85;100371.78;5033267;28;20111;-76
2022/08/01 06:40:29;;;;;;;14.57;13.57;;;;;;;22.93;65.05;100362.78;5034093;28;20025;-77
2022/08/01 06:42:55;;;;;;;11.93;11.13;;;;;;;23.14;64.03;100374.13;5025858;28;20022;-77
2022/08/01 06:45:22;;;;;;;12.82;12.02;;;;;;;23.17;63.57;100374.78;5029720;28;20056;-76
2022/08/01 06:47:48;;;;;;;12.75;11.43;;;;;;;23.21;64.02;100379.97;5026647;28;20045;-76
2022/08/01 06:50:14;;;;;;;11.85;11.05;;;;;;;23.26;63.37;100385.94;5033024;28;20052;-76
2022/08/01 06:52:40;;;;;;;11.10;10.18;;;;;;;23.28;63.86;100390.28;5031010;28;20111;-76
2022/08/01 06:55:05;;;;;;;10.95;10.00;;;;;;;23.17;63.89;100377.47;5029641;28;20081;-76
2022/08/01 06:57:31;;;;;;;9.90;9.20;;;;;;;23.11;63.59;100388.63;5026778;28;20045;-75
2022/08/01 06:59:57;;;;;;;10.95;10.25;;;;;;;22.88;64.37;100387.28;5028743;28;20021;-76
2022/08/01 07:02:23;;;;;;;11.23;10.48;;;;;;;22.97;64.17;100388.59;5026871;28;20031;-77
2022/08/01 07:04:48;;;;;;;12.05;11.27;;;;;;;22.77;65.31;100387.06;5028489;28;20034;-76
2022/08/01 07:07:13;;;;;;;10.98;10.18;;;;;;;22.88;65.43;100389.13;5027548;28;20112;-76
2022/08/01 07:09:41;;;;;;;13.75;12.95;;;;;;;22.76;65.95;100402.31;5026653;28;20048;-76
2022/08/01 07:12:07;;;;;;;14.48;13.57;;;;;;;22.48;68.71;100403.09;5023406;28;20048;-76
2022/08/01 07:14:32;;;;;;;13.40;12.48;;;;;;;22.48;68.56;100407.59;5027377;28;20034;-76
2022/08/01 07:16:57;;;;;;;13.18;12.27;;;;;;;22.37;69.77;100404.63;5031585;28;20037;-76
2022/08/01 07:19:23;;;;;;;13.50;12.55;;;;;;;22.53;68.92;100392.03;5029512;28;20029;-76
2022/08/01 07:21:48;;;;;;;14.52;13.73;;;;;;;22.76;67.96;100391.56;5026351;28;20199;-76
2022/08/01 07:24:14;;;;;;;14.15;13.18;;;;;;;22.92;67.56;100401.41;5031762;28;20072;-77
2022/08/01 07:26:45;;;;;;;15.07;14.02;;;;;;;23.10;66.29;100397.66;5023159;28;20052;-76
2022/08/01 07:29:10;;;;;;;13.50;12.70;;;;;;;23.33;65.57;100393.56;5034352;28;20043;-76
2022/08/01 07:31:35;;;;;;;13.65;12.75;;;;;;;23.58;64.72;100383.97;5021457;28;20045;-76
2022/08/01 07:34:01;;;;;;;12.63;11.68;;;;;;;23.75;63.96;100393.72;5030214;28;20120;-77
2022/08/01 07:36:26;;;;;;;12.13;11.40;;;;;;;23.74;63.03;100389.28;5032315;28;20128;-77
2022/08/01 07:38:51;;;;;;;12.30;11.30;;;;;;;23.96;62.59;100392.34;5028857;28;20029;-77
2022/08/01 07:41:17;;;;;;;10.60;10.00;;;;;;;23.99;62.40;100384.03;5029316;28;20083;-77
2022/08/01 07:43:42;;;;;;;11.63;10.90;;;;;;;23.92;61.08;100384.53;5022300;28;20033;-77
2022/08/01 07:46:07;;;;;;;10.07;9.27;;;;;;;23.71;61.36;100384.03;5026579;28;20029;-76
2022/08/01 07:48:33;;;;;;;11.40;10.48;;;;;;;23.74;62.28;100384.75;5024458;28;20028;-76
2022/08/01 07:50:58;;;;;;;10.57;9.88;;;;;;;23.85;61.77;100392.16;5027620;28;20037;-77
2022/08/01 07:53:24;;;;;;;11.13;10.30;;;;;;;23.90;61.73;100387.34;5026312;28;20041;-77
2022/08/01 07:55:49;;;;;;;11.27;10.45;;;;;;;23.97;60.41;100386.00;5024675;28;20041;-77
2022/08/01 07:58:15;;;;;;;10.93;10.10;;;;;;;23.82;60.94;100395.06;5026889;28;20072;-77
2022/08/01 08:00:40;;;;;;;10.18;9.57;;;;;;;23.80;61.54;100387.06;5027725;28;20444;-76
2022/08/01 08:03:06;;;;;;;10.05;9.30;;;;;;;23.98;61.81;100387.72;5024669;28;20124;-77
2022/08/01 08:05:34;;;;;;;11.48;10.23;;;;;;;24.19;61.13;100390.84;5028113;28;20136;-76
2022/08/01 08:08:07;;;;;;;10.55;9.85;;;;;;;24.31;60.20;100391.00;5022832;28;20120;-77
2022/08/01 08:10:33;;;;;;;9.38;8.77;;;;;;;24.18;60.58;100388.25;5026214;28;20113;-76
2022/08/01 08:12:58;;;;;;;10.23;9.52;;;;;;;23.93;62.10;100383.59;5024482;28;20479;-77
2022/08/01 08:15:24;;;;;;;9.48;8.88;;;;;;;23.90;61.71;100392.75;5028141;28;20044;-77
2022/08/01 08:17:49;;;;;;;10.85;10.15;;;;;;;23.67;62.58;100388.78;5025685;28;20036;-77
2022/08/01 08:20:15;;;;;;;9.60;8.95;;;;;;;23.49;63.29;100392.63;5030096;28;20021;-77
2022/08/01 08:22:40;;;;;;;11.85;10.95;;;;;;;23.60;62.77;100393.66;5023082;28;20088;-77
2022/08/01 08:25:06;;;;;;;10.02;9.43;;;;;;;24.05;60.73;100382.78;5027099;28;20059;-77
2022/08/01 08:27:32;;;;;;;10.68;9.98;;;;;;;24.24;60.38;100393.25;5031189;28;20033;-77
2022/08/01 08:29:57;;;;;;;10.60;9.82;;;;;;;24.55;59.66;100380.44;5033172;28;20057;-77
2022/08/01 08:32:22;;;;;;;10.63;9.98;;;;;;;24.81;58.11;100387.69;5029197;28;20029;-76
2022/08/01 08:34:47;;;;;;;10.73;10.13;;;;;;;24.64;57.27;100382.56;5027110;28;20100;-77
2022/08/01 08:37:13;;;;;;;11.18;10.57;;;;;;;24.45;57.19;100388.31;5025744;28;20068;-77
2022/08/01 08:39:38;;;;;;;9.38;8.88;;;;;;;24.22;57.73;100392.50;5026878;28;20069;-77
2022/08/01 08:42:10;;;;;;;9.85;9.18;;;;;;;23.93;58.49;100394.38;5024519;28;20049;-77
2022/08/01 08:44:36;;;;;;;9.00;8.50;;;;;;;23.94;58.73;100390.69;5024102;28;20120;-76
2022/08/01 08:47:05;;;;;;;9.07;8.48;;;;;;;23.88;59.49;100396.50;5031648;28;20040;-77
2022/08/01 08:49:30;;;;;;;10.85;10.15;;;;;;;24.13;58.77;100393.97;5028004;28;20029;-77
2022/08/01 08:52:00;;;;;;;11.80;10.50;;;;;;;24.47;57.92;100395.34;5023467;28;20514;-77
2022/08/01 08:54:27;;;;;;;10.52;9.88;;;;;;;24.67;57.29;100395.84;5031237;28;20041;-77
2022/08/01 08:56:54;;;;;;;11.00;10.20;;;;;;;24.77;56.49;100399.66;5019982;28;20040;-77
2022/08/01 08:59:20;;;;;;;10.93;10.32;;;;;;;24.90;55.70;100392.44;5024071;28;20062;-77
2022/08/01 09:01:46;;;;;;;11.00;10.40;;;;;;;24.75;55.87;100390.78;5021781;28;20100;-77
2022/08/01 09:04:12;;;;;;;11.13;9.68;;;;;;;24.71;56.66;100391.97;5027163;28;20033;-77
2022/08/01 09:06:38;;;;;;;10.45;9.85;;;;;;;24.87;56.37;100397.19;5021934;28;20221;-77
2022/08/01 09:09:05;;;;;;;9.43;8.93;;;;;;;24.85;55.97;100402.69;5025863;28;20434;-77
2022/08/01 09:11:32;;;;;;;11.55;10.95;;;;;;;25.13;55.42;100408.91;5023218;28;20048;-77
2022/08/01 09:14:14;;;;;;;14.00;13.25;;;;;;;25.49;54.52;100402.81;5024799;28;20120;-77
2022/08/01 09:16:44;;;;;;;11.93;11.23;;;;;;;25.43;53.97;100403.22;5023728;28;20117;-77
2022/08/01 09:19:19;;;;;;;12.80;12.07;;;;;;;25.56;54.06;100411.34;5026843;28;20136;-77
2022/08/01 09:21:59;;;;;;;10.45;9.85;;;;;;;25.51;54.48;100418.91;5019016;28;20399;-77
2022/08/01 09:24:26;;;;;;;10.90;10.30;;;;;;;25.49;54.40;100410.03;5025715;28;20061;-77
2022/08/01 09:26:53;;;;;;;13.00;12.20;;;;;;;25.82;53.25;100408.63;5027178;28;20109;-77
2022/08/01 09:29:24;;;;;;;11.35;10.68;;;;;;;26.08;53.26;100399.53;5026876;28;20029;-77
2022/08/01 09:31:51;;;;;;;14.32;13.32;;;;;;;25.99;52.75;100402.88;5031135;28;20053;-77
2022/08/01 09:34:24;;;;;;;9.15;8.55;;;;;;;25.64;53.74;100408.09;5029472;28;20025;-76
2022/08/01 09:36:52;;;;;;;10.27;9.63;;;;;;;25.27;54.13;100413.38;5021489;28;20042;-77
2022/08/01 09:39:19;;;;;;;9.23;8.57;;;;;;;24.86;55.17;100409.84;5022961;28;20033;-77
2022/08/01 09:41:45;;;;;;;10.35;9.65;;;;;;;24.90;54.65;100419.44;5027215;28;20416;-77
2022/08/01 09:44:11;;;;;;;11.15;10.45;;;;;;;24.63;55.15;100424.88;5030912;28;20061;-77
2022/08/01 09:46:48;;;;;;;10.63;9.63;;;;;;;24.32;56.75;100428.69;5024889;28;20084;-77
2022/08/01 09:49:14;;;;;;;11.40;10.55;;;;;;;24.35;57.06;100433.00;5031879;28;20028;-77
2022/08/01 09:51:39;;;;;;;11.50;10.80;;;;;;;24.00;58.77;100438.84;5028779;28;20029;-77
2022/08/01 09:54:06;;;;;;;13.10;11.98;;;;;;;23.56;60.45;100437.06;5029593;28;20033;-77
2022/08/01 09:56:38;;;;;;;9.65;9.05;;;;;;;23.58;61.08;100456.72;5031575;28;20444;-77
2022/08/01 09:59:04;;;;;;;12.95;11.95;;;;;;;23.40;61.96;100458.69;5029191;28;20080;-77
2022/08/01 10:01:43;;;;;;;11.52;10.90;;;;;;;23.43;62.31;100471.09;5024688;28;20067;-77
2022/08/01 10:04:10;;;;;;;12.20;11.50;;;;;;;23.30;63.16;100466.44;5030114;28;20483;-76
2022/08/01 10:06:36;;;;;;;16.00;15.15;;;;;;;23.24;64.62;100476.72;5027686;28;20038;-77
2022/08/01 10:09:02;;;;;;;17.70;16.65;;;;;;;23.38;64.36;100496.47;5028762;28;20046;-77
2022/08/01 10:11:28;;;;;;;16.35;15.45;;;;;;;23.66;64.04;100481.34;5030813;28;20033;-77
2022/08/01 10:13:55;;;;;;;16.45;15.65;;;;;;;23.81;63.70;100495.72;5028545;28;20415;-77
2022/08/01 10:16:21;;;;;;;18.83;17.90;;;;;;;23.94;62.61;100483.19;5031506;28;20037;-76
2022/08/01 10:18:47;;;;;;;27.35;25.95;;;;;;;23.86;61.54;100512.47;5024841;28;20033;-76
2022/08/01 10:21:13;;;;;;;15.00;14.20;;;;;;;23.55;62.45;100486.50;5030331;28;20036;-76
2022/08/01 10:23:38;;;;;;;14.35;13.65;;;;;;;23.46;63.58;100487.06;5021274;28;20102;-77
2022/08/01 10:26:08;;;;;;;20.92;19.92;;;;;;;23.27;64.47;100495.41;5027903;28;20053;-76
2022/08/01 10:28:36;;;;;;;21.42;20.33;;;;;;;23.06;64.83;100489.47;5032720;28;20030;-77
2022/08/01 10:31:02;;;;;;;13.80;13.10;;;;;;;23.13;64.42;100483.63;5026257;28;20036;-76
2022/08/01 10:33:29;;;;;;;15.10;14.10;;;;;;;23.25;62.73;100484.72;5029013;28;20159;-76
2022/08/01 10:35:56;;;;;;;14.52;13.75;;;;;;;23.43;62.92;100471.97;5030091;28;20053;-77
2022/08/01 10:38:23;;;;;;;11.63;11.02;;;;;;;23.56;60.02;100488.25;5026462;28;20029;-77
2022/08/01 10:40:49;;;;;;;11.88;11.27;;;;;;;23.78;59.65;100479.75;5028806;28;20043;-77
2022/08/01 10:43:16;;;;;;;12.07;11.48;;;;;;;24.34;57.40;100475.31;5033944;28;20029;-77
2022/08/01 10:45:43;;;;;;;13.70;13.00;;;;;;;24.03;58.34;100484.47;5030277;28;20377;-77
2022/08/01 10:48:11;;;;;;;11.48;10.88;;;;;;;23.66;59.83;100488.53;5028420;28;20029;-77
2022/08/01 10:50:43;;;;;;;12.55;11.82;;;;;;;23.43;59.69;100489.97;5031303;28;20041;-77
2022/08/01 10:53:12;;;;;;;12.23;11.63;;;;;;;23.72;59.24;100488.22;5030576;28;20037;-77
2022/08/01 10:55:50;;;;;;;12.85;12.15;;;;;;;24.18;58.34;100474.53;5026157;28;20083;-77
2022/08/01 10:58:26;;;;;;;11.85;11.25;;;;;;;24.62;56.33;100468.13;5024478;28;20380;-77
2022/08/01 11:01:31;;;;;;;11.05;10.35;;;;;;;24.57;55.68;100476.50;5028061;28;20092;-77
2022/08/01 11:04:00;;;;;;;9.43;8.93;;;;;;;24.33;56.77;100484.34;5027334;28;20116;-76
2022/08/01 11:06:36;;;;;;;11.43;10.82;;;;;;;24.45;57.48;100480.91;5027398;28;20041;-77
2022/08/01 11:09:05;;;;;;;10.73;10.07;;;;;;;24.89;56.00;100485.19;5029361;28;20045;-76
2022/08/01 11:11:30;;;;;;;10.40;9.80;;;;;;;24.94;55.42;100479.47;5025930;28;20125;-76
2022/08/01 11:14:06;;;;;;;10.23;9.45;;;;;;;25.11;55.09;100478.34;5024820;28;20117;-77